createdAt,value
2023-03-23T00:03:44.883Z,95651
2023-03-23T00:04:44.862Z,95645
2023-03-23T00:05:44.843Z,95645
2023-03-23T00:07:44.856Z,95643
2023-03-23T00:08:44.864Z,95647
2023-03-23T00:10:45.099Z,95651
2023-03-23T00:12:44.893Z,95657
2023-03-23T00:15:44.899Z,95661
2023-03-23T00:16:44.916Z,95663
2023-03-23T00:17:44.898Z,95663
2023-03-23T00:19:44.919Z,95668
2023-03-23T00:20:44.932Z,95673
2023-03-23T00:21:44.931Z,95670
2023-03-23T00:22:44.916Z,95667
2023-03-23T00:23:44.915Z,95666
2023-03-23T00:24:44.944Z,95674
2023-03-23T00:25:44.916Z,95669
2023-03-23T00:26:48.009Z,95665
2023-03-23T00:27:44.963Z,95664
2023-03-23T00:28:44.936Z,95664
2023-03-23T00:29:44.934Z,95665
2023-03-23T00:30:44.933Z,95665
2023-03-23T00:31:44.918Z,95661
2023-03-23T00:32:44.954Z,95664
2023-03-23T00:33:44.966Z,95664
2023-03-23T00:34:44.920Z,95658
2023-03-23T00:35:45.102Z,95658
2023-03-23T00:36:44.941Z,95659
2023-03-23T00:37:44.992Z,95658
2023-03-23T00:38:44.960Z,95658
2023-03-23T00:40:44.987Z,95664
2023-03-23T00:41:44.994Z,95664
2023-03-23T00:42:44.980Z,95653
2023-03-23T00:43:44.971Z,95652
2023-03-23T00:44:44.948Z,95652
2023-03-23T00:45:44.985Z,95657
2023-03-23T00:46:45.000Z,95657
2023-03-23T00:47:44.998Z,95648
2023-03-23T00:48:44.956Z,95651
2023-03-23T00:49:44.969Z,95651
2023-03-23T00:50:44.969Z,95646
2023-03-23T00:51:44.977Z,95649
2023-03-23T00:52:44.974Z,95647
2023-03-23T00:53:44.999Z,95647
2023-03-23T00:54:44.991Z,95644
2023-03-23T00:55:45.004Z,95640
2023-03-23T00:56:44.998Z,95639
2023-03-23T00:57:45.019Z,95639
2023-03-23T00:58:44.999Z,95642
2023-03-23T00:59:45.018Z,95641
2023-03-23T01:02:45.033Z,95639
2023-03-23T01:03:45.002Z,95636
2023-03-23T01:04:45.006Z,95638
2023-03-23T01:11:45.061Z,95634
2023-03-23T01:12:45.024Z,95635
2023-03-23T01:13:45.092Z,95626
2023-03-23T01:15:45.073Z,95629
2023-03-23T01:16:45.066Z,95637
2023-03-23T01:17:45.053Z,95634
2023-03-23T01:18:45.102Z,95633
2023-03-23T01:20:45.074Z,95629
2023-03-23T01:21:45.087Z,95630
2023-03-23T01:23:45.094Z,95625
2023-03-23T01:24:45.081Z,95625
2023-03-23T01:25:45.083Z,95631
2023-03-23T01:27:45.086Z,95625
2023-03-23T01:28:45.135Z,95622
2023-03-23T01:30:45.100Z,95618
2023-03-23T01:31:45.105Z,95620
2023-03-23T01:32:45.100Z,95618
2023-03-23T01:33:45.091Z,95618
2023-03-23T01:34:45.104Z,95617
2023-03-23T01:35:45.122Z,95614
2023-03-23T01:36:45.148Z,95616
2023-03-23T01:37:45.124Z,95611
2023-03-23T01:38:45.124Z,95611
2023-03-23T01:39:45.117Z,95610
2023-03-23T01:40:45.116Z,95613
2023-03-23T01:41:45.146Z,95609
2023-03-23T01:42:45.103Z,95610
2023-03-23T01:43:45.125Z,95612
2023-03-23T01:44:45.119Z,95614
2023-03-23T01:45:45.132Z,95614
2023-03-23T01:46:45.115Z,95613
2023-03-23T01:47:45.114Z,95612
2023-03-23T01:48:45.124Z,95618
2023-03-23T01:49:45.148Z,95620
2023-03-23T01:50:45.134Z,95619
2023-03-23T01:51:45.142Z,95624
2023-03-23T01:52:45.130Z,95628
2023-03-23T01:53:45.155Z,95630
2023-03-23T01:54:45.146Z,95634
2023-03-23T01:55:45.130Z,95631
2023-03-23T01:56:45.169Z,95637
2023-03-23T01:57:45.140Z,95637
2023-03-23T01:58:45.178Z,95639
2023-03-23T01:59:45.169Z,95646
2023-03-23T02:00:45.168Z,95646
2023-03-23T02:01:45.179Z,95643
2023-03-23T02:02:45.203Z,95642
2023-03-23T02:03:45.200Z,95642
2023-03-23T02:04:45.173Z,95644
2023-03-23T02:05:45.147Z,95644
2023-03-23T02:06:45.159Z,95644
2023-03-23T02:07:45.208Z,95649
2023-03-23T02:08:45.164Z,95649
2023-03-23T02:09:45.186Z,95647
2023-03-23T02:10:45.206Z,95645
2023-03-23T02:11:45.207Z,95652
2023-03-23T02:12:45.261Z,95657
2023-03-23T02:15:45.211Z,95661
2023-03-23T02:16:45.193Z,95664
2023-03-23T02:17:45.233Z,95667
2023-03-23T02:18:45.216Z,95672
2023-03-23T02:20:45.242Z,95671
2023-03-23T02:21:45.242Z,95668
2023-03-23T02:22:45.234Z,95661
2023-03-23T02:23:45.223Z,95661
2023-03-23T02:24:45.228Z,95661
2023-03-23T02:25:45.271Z,95657
2023-03-23T02:26:45.234Z,95656
2023-03-23T02:27:45.248Z,95652
2023-03-23T02:28:45.268Z,95645
2023-03-23T02:29:45.777Z,95647
2023-03-23T02:30:45.246Z,95647
2023-03-23T02:31:45.235Z,95644
2023-03-23T02:32:45.237Z,95636
2023-03-23T02:33:45.246Z,95636
2023-03-23T02:34:45.259Z,95632
2023-03-23T02:35:45.367Z,95625
2023-03-23T02:36:45.277Z,95629
2023-03-23T02:37:45.259Z,95622
2023-03-23T02:38:45.317Z,95623
2023-03-23T02:39:45.280Z,95625
2023-03-23T02:40:45.263Z,95625
2023-03-23T02:41:45.344Z,95623
2023-03-23T02:42:45.271Z,95616
2023-03-23T02:43:45.274Z,95617
2023-03-23T02:44:45.268Z,95618
2023-03-23T02:45:45.280Z,95611
2023-03-23T02:46:45.252Z,95611
2023-03-23T02:47:45.286Z,95611
2023-03-23T02:48:45.289Z,95610
2023-03-23T02:49:45.289Z,95608
2023-03-23T02:50:45.308Z,95607
2023-03-23T02:52:45.291Z,95605
2023-03-23T02:53:45.410Z,95610
2023-03-23T02:54:45.320Z,95612
2023-03-23T02:55:45.325Z,95606
2023-03-23T02:56:45.335Z,95603
2023-03-23T02:57:45.318Z,95601
2023-03-23T02:58:45.314Z,95598
2023-03-23T02:59:45.309Z,95598
2023-03-23T03:00:45.277Z,95598
2023-03-23T03:01:45.360Z,95592
2023-03-23T03:02:45.317Z,95600
2023-03-23T03:03:45.327Z,95597
2023-03-23T03:04:45.323Z,95597
2023-03-23T03:05:45.300Z,95597
2023-03-23T03:06:45.331Z,95595
2023-03-23T03:07:45.333Z,95597
2023-03-23T03:08:45.304Z,95597
2023-03-23T03:09:45.348Z,95606
2023-03-23T03:10:45.338Z,95598
2023-03-23T03:11:45.351Z,95600
2023-03-23T03:12:45.335Z,95596
2023-03-23T03:13:45.358Z,95591
2023-03-23T03:14:45.392Z,95585
2023-03-23T03:15:45.339Z,95584
2023-03-23T03:16:45.350Z,95584
2023-03-23T03:17:45.328Z,95578
2023-03-23T03:18:45.358Z,95575
2023-03-23T03:19:45.388Z,95578
2023-03-23T03:21:45.365Z,95574
2023-03-23T03:22:45.394Z,95580
2023-03-23T03:23:45.372Z,95580
2023-03-23T03:24:45.422Z,95581
2023-03-23T03:25:45.380Z,95579
2023-03-23T03:26:45.376Z,95577
2023-03-23T03:27:45.366Z,95578
2023-03-23T03:28:45.376Z,95578
2023-03-23T03:29:45.399Z,95569
2023-03-23T03:30:45.391Z,95559
2023-03-23T03:31:45.366Z,95559
2023-03-23T03:32:45.406Z,95560
2023-03-23T03:33:45.397Z,95560
2023-03-23T03:34:45.397Z,95551
2023-03-23T03:35:45.421Z,95552
2023-03-23T03:36:45.425Z,95562
2023-03-23T03:37:45.389Z,95561
2023-03-23T03:38:45.395Z,95556
2023-03-23T03:39:45.433Z,95564
2023-03-23T03:40:45.392Z,95564
2023-03-23T03:41:45.396Z,95562
2023-03-23T03:42:45.394Z,95561
2023-03-23T03:43:45.393Z,95564
2023-03-23T03:44:45.418Z,95564
2023-03-23T03:45:45.438Z,95562
2023-03-23T03:46:45.409Z,95562
2023-03-23T03:47:45.448Z,95563
2023-03-23T03:48:45.406Z,95567
2023-03-23T03:49:45.413Z,95566
2023-03-23T03:50:45.442Z,95566
2023-03-23T03:51:45.443Z,95570
2023-03-23T03:53:45.416Z,95570
2023-03-23T03:55:45.474Z,95572
2023-03-23T03:56:45.444Z,95569
2023-03-23T03:57:45.455Z,95569
2023-03-23T04:00:45.491Z,95571
2023-03-23T04:01:45.454Z,95565
2023-03-23T04:02:45.476Z,95565
2023-03-23T04:03:45.457Z,95562
2023-03-23T04:05:45.534Z,95566
2023-03-23T04:06:45.489Z,95566
2023-03-23T04:07:45.509Z,95568
2023-03-23T04:08:45.546Z,95568
2023-03-23T04:09:45.499Z,95568
2023-03-23T04:10:45.496Z,95563
2023-03-23T04:11:45.492Z,95565
2023-03-23T04:12:45.462Z,95565
2023-03-23T04:13:45.463Z,95563
2023-03-23T04:14:45.548Z,95563
2023-03-23T04:15:45.465Z,95563
2023-03-23T04:16:45.509Z,95562
2023-03-23T04:17:45.480Z,95562
2023-03-23T04:18:45.465Z,95556
2023-03-23T04:19:45.508Z,95557
2023-03-23T04:20:45.544Z,95553
2023-03-23T04:21:45.521Z,95553
2023-03-23T04:22:45.489Z,95554
2023-03-23T04:23:45.517Z,95554
2023-03-23T04:24:56.865Z,95547
2023-03-23T04:25:45.546Z,95549
2023-03-23T04:26:45.524Z,95554
2023-03-23T04:27:45.519Z,95554
2023-03-23T04:28:45.549Z,95558
2023-03-23T04:29:45.526Z,95558
2023-03-23T04:30:45.529Z,95558
2023-03-23T04:31:45.535Z,95558
2023-03-23T04:32:45.530Z,95558
2023-03-23T04:33:58.712Z,95562
2023-03-23T04:34:45.554Z,95561
2023-03-23T04:35:45.572Z,95563
2023-03-23T04:36:56.488Z,95561
2023-03-23T04:38:45.564Z,95562
2023-03-23T04:39:45.620Z,95559
2023-03-23T04:40:45.579Z,95559
2023-03-23T04:41:45.558Z,95561
2023-03-23T04:42:45.570Z,95562
2023-03-23T04:43:45.582Z,95562
2023-03-23T04:45:45.558Z,95563
2023-03-23T04:46:45.543Z,95562
2023-03-23T04:47:45.562Z,95562
2023-03-23T04:48:45.554Z,95563
2023-03-23T04:49:45.607Z,95561
2023-03-23T04:51:45.589Z,95565
2023-03-23T04:52:45.646Z,95565
2023-03-23T04:53:45.604Z,95563
2023-03-23T04:54:45.592Z,95564
2023-03-23T04:55:45.584Z,95567
2023-03-23T04:57:45.694Z,95559
2023-03-23T04:58:45.583Z,95559
2023-03-23T04:59:45.578Z,95561
2023-03-23T05:01:45.598Z,95566
2023-03-23T05:04:45.629Z,95566
2023-03-23T05:05:45.631Z,95564
2023-03-23T05:06:45.652Z,95564
2023-03-23T05:07:45.657Z,95561
2023-03-23T05:08:45.617Z,95561
2023-03-23T05:09:45.626Z,95549
2023-03-23T05:10:45.636Z,95549
2023-03-23T05:11:45.639Z,95549
2023-03-23T05:12:45.675Z,95547
2023-03-23T05:13:45.614Z,95547
2023-03-23T05:15:45.664Z,95552
2023-03-23T05:16:45.618Z,95553
2023-03-23T05:17:45.681Z,95553
2023-03-23T05:18:45.661Z,95552
2023-03-23T05:19:45.652Z,95552
2023-03-23T05:20:45.688Z,95559
2023-03-23T05:21:45.629Z,95559
2023-03-23T05:22:45.659Z,95567
2023-03-23T05:23:45.660Z,95567
2023-03-23T05:24:45.665Z,95571
2023-03-23T05:26:45.682Z,95575
2023-03-23T05:27:45.699Z,95576
2023-03-23T05:28:45.680Z,95576
2023-03-23T05:30:45.697Z,95574
2023-03-23T05:31:45.655Z,95574
2023-03-23T05:32:45.671Z,95573
2023-03-23T05:33:45.671Z,95573
2023-03-23T05:34:45.685Z,95574
2023-03-23T05:35:45.990Z,95574
2023-03-23T05:36:45.709Z,95573
2023-03-23T05:37:45.719Z,95576
2023-03-23T05:38:45.714Z,95582
2023-03-23T05:39:45.706Z,95582
2023-03-23T05:40:45.721Z,95587
2023-03-23T05:41:47.299Z,95587
2023-03-23T05:42:45.703Z,95588
2023-03-23T05:43:45.708Z,95589
2023-03-23T05:45:45.708Z,95583
2023-03-23T05:46:45.695Z,95587
2023-03-23T05:47:45.714Z,95584
2023-03-23T05:49:45.717Z,95585
2023-03-23T05:50:45.748Z,95588
2023-03-23T05:51:46.307Z,95588
2023-03-23T05:52:45.744Z,95586
2023-03-23T05:53:45.750Z,95586
2023-03-23T05:54:45.801Z,95585
2023-03-23T05:55:45.712Z,95585
2023-03-23T05:56:45.767Z,95590
2023-03-23T05:57:45.755Z,95590
2023-03-23T05:58:45.720Z,95594
2023-03-23T05:59:45.753Z,95602
2023-03-23T06:00:45.802Z,95602
2023-03-23T06:01:45.818Z,95601
2023-03-23T06:02:45.777Z,95601
2023-03-23T06:03:45.750Z,95610
2023-03-23T06:04:45.782Z,95610
2023-03-23T06:05:45.782Z,95610
2023-03-23T06:06:45.752Z,95609
2023-03-23T06:07:45.762Z,95609
2023-03-23T06:08:45.767Z,95609
2023-03-23T06:10:45.823Z,95608
2023-03-23T06:11:45.768Z,95608
2023-03-23T06:12:45.822Z,95607
2023-03-23T06:14:45.777Z,95601
2023-03-23T06:15:45.813Z,95602
2023-03-23T06:16:45.819Z,95604
2023-03-23T06:17:45.840Z,95601
2023-03-23T06:18:45.781Z,95602
2023-03-23T06:20:47.629Z,95602
2023-03-23T06:21:45.821Z,95601
2023-03-23T06:22:45.835Z,95600
2023-03-23T06:24:45.800Z,95606
2023-03-23T06:26:45.842Z,95608
2023-03-23T06:27:45.818Z,95609
2023-03-23T06:28:45.854Z,95615
2023-03-23T06:29:45.821Z,95614
2023-03-23T06:30:45.828Z,95610
2023-03-23T06:31:45.847Z,95606
2023-03-23T06:32:45.845Z,95612
2023-03-23T06:33:45.899Z,95607
2023-03-23T06:34:45.830Z,95610
2023-03-23T06:35:45.913Z,95612
2023-03-23T06:36:45.858Z,95608
2023-03-23T06:37:45.864Z,95606
2023-03-23T06:38:45.890Z,95606
2023-03-23T06:39:45.873Z,95606
2023-03-23T06:40:45.839Z,95607
2023-03-23T06:41:45.861Z,95605
2023-03-23T06:42:45.847Z,95604
2023-03-23T06:43:45.888Z,95608
2023-03-23T06:44:45.885Z,95610
2023-03-23T06:45:45.858Z,95610
2023-03-23T06:46:45.877Z,95605
2023-03-23T06:47:45.883Z,95606
2023-03-23T06:48:45.898Z,95605
2023-03-23T06:49:45.898Z,95605
2023-03-23T06:50:45.907Z,95602
2023-03-23T06:51:45.888Z,95605
2023-03-23T06:52:45.889Z,95605
2023-03-23T06:53:45.873Z,95606
2023-03-23T06:54:45.923Z,95610
2023-03-23T06:56:45.898Z,95608
2023-03-23T06:57:45.923Z,95606
2023-03-23T06:58:45.914Z,95603
2023-03-23T06:59:45.915Z,95603
2023-03-23T07:00:45.910Z,95610
2023-03-23T07:01:45.964Z,95607
2023-03-23T07:02:45.933Z,95602
2023-03-23T07:03:45.940Z,95604
2023-03-23T07:04:45.927Z,95604
2023-03-23T07:05:45.940Z,95598
2023-03-23T07:06:45.937Z,95607
2023-03-23T07:07:45.943Z,95608
2023-03-23T07:08:45.972Z,95609
2023-03-23T07:09:45.985Z,95604
2023-03-23T07:10:45.954Z,95606
2023-03-23T07:11:45.964Z,95615
2023-03-23T07:12:45.947Z,95615
2023-03-23T07:13:45.960Z,95611
2023-03-23T07:14:45.986Z,95617
2023-03-23T07:15:45.965Z,95621
2023-03-23T07:16:45.959Z,95621
2023-03-23T07:17:45.956Z,95621
2023-03-23T07:18:45.961Z,95621
2023-03-23T07:19:45.944Z,95619
2023-03-23T07:20:45.956Z,95620
2023-03-23T07:21:45.957Z,95622
2023-03-23T07:22:46.018Z,95619
2023-03-23T07:23:45.967Z,95617
2023-03-23T07:24:45.978Z,95619
2023-03-23T07:25:46.025Z,95620
2023-03-23T07:26:45.964Z,95620
2023-03-23T07:27:46.027Z,95622
2023-03-23T07:28:46.030Z,95618
2023-03-23T07:29:45.974Z,95619
2023-03-23T07:30:45.963Z,95618
2023-03-23T07:31:46.019Z,95622
2023-03-23T07:32:45.985Z,95621
2023-03-23T07:33:45.991Z,95617
2023-03-23T07:34:46.002Z,95617
2023-03-23T07:35:46.075Z,95621
2023-03-23T07:36:45.989Z,95625
2023-03-23T07:37:46.024Z,95627
2023-03-23T07:38:46.002Z,95634
2023-03-23T07:39:46.000Z,95636
2023-03-23T07:42:46.046Z,95647
2023-03-23T07:43:46.006Z,95646
2023-03-23T07:44:46.281Z,95646
2023-03-23T07:45:46.071Z,95647
2023-03-23T07:46:46.040Z,95647
2023-03-23T07:47:46.061Z,95650
2023-03-23T07:51:46.021Z,95653
2023-03-23T07:52:46.058Z,95652
2023-03-23T07:53:46.060Z,95656
2023-03-23T07:54:46.045Z,95655
2023-03-23T07:55:46.225Z,95652
2023-03-23T07:56:46.071Z,95649
2023-03-23T07:57:46.082Z,95649
2023-03-23T07:58:46.079Z,95646
2023-03-23T07:59:46.080Z,95648
2023-03-23T08:00:46.099Z,95643
2023-03-23T08:01:46.082Z,95645
2023-03-23T08:02:46.066Z,95646
2023-03-23T08:03:47.366Z,95646
2023-03-23T08:05:46.116Z,95640
2023-03-23T08:06:46.098Z,95642
2023-03-23T08:07:46.085Z,95640
2023-03-23T08:08:46.090Z,95641
2023-03-23T08:09:46.117Z,95641
2023-03-23T08:10:46.116Z,95640
2023-03-23T08:11:46.121Z,95640
2023-03-23T08:12:46.082Z,95641
2023-03-23T08:13:46.170Z,95645
2023-03-23T08:14:46.093Z,95645
2023-03-23T08:15:46.114Z,95648
2023-03-23T08:16:46.098Z,95649
2023-03-23T08:17:46.098Z,95649
2023-03-23T08:18:46.114Z,95648
2023-03-23T08:20:46.199Z,95647
2023-03-23T08:21:46.115Z,95650
2023-03-23T08:22:53.134Z,95656
2023-03-23T08:23:46.090Z,95654
2023-03-23T08:24:46.130Z,95652
2023-03-23T08:25:46.161Z,95650
2023-03-23T08:26:46.140Z,95652
2023-03-23T08:28:46.111Z,95648
2023-03-23T08:29:46.145Z,95648
2023-03-23T08:30:46.136Z,95647
2023-03-23T08:31:46.162Z,95649
2023-03-23T08:32:46.154Z,95650
2023-03-23T08:33:46.188Z,95646
2023-03-23T08:34:46.156Z,95645
2023-03-23T08:35:46.165Z,95646
2023-03-23T08:36:46.184Z,95644
2023-03-23T08:37:46.167Z,95643
2023-03-23T08:38:46.209Z,95647
2023-03-23T08:39:46.224Z,95646
2023-03-23T08:40:46.171Z,95647
2023-03-23T08:41:46.153Z,95649
2023-03-23T08:42:52.381Z,95649
2023-03-23T08:43:46.143Z,95650
2023-03-23T08:44:46.143Z,95650
2023-03-23T08:45:46.182Z,95648
2023-03-23T08:46:46.232Z,95643
2023-03-23T08:47:46.206Z,95645
2023-03-23T08:48:46.174Z,95646
2023-03-23T08:49:46.164Z,95649
2023-03-23T08:50:46.202Z,95652
2023-03-23T08:51:46.248Z,95648
2023-03-23T08:52:46.188Z,95655
2023-03-23T08:53:46.181Z,95652
2023-03-23T08:54:46.181Z,95654
2023-03-23T08:55:46.193Z,95654
2023-03-23T08:56:46.221Z,95660
2023-03-23T08:57:46.201Z,95660
2023-03-23T08:58:46.195Z,95660
2023-03-23T08:59:46.214Z,95659
2023-03-23T09:00:47.818Z,95659
2023-03-23T09:01:46.267Z,95667
2023-03-23T09:02:46.248Z,95667
2023-03-23T09:03:46.216Z,95667
2023-03-23T09:04:46.194Z,95670
2023-03-23T09:05:46.220Z,95671
2023-03-23T09:06:46.257Z,95671
2023-03-23T09:07:46.453Z,95671
2023-03-23T09:08:46.257Z,95674
2023-03-23T09:09:47.272Z,95674
2023-03-23T09:11:46.288Z,95682
2023-03-23T09:12:46.225Z,95682
2023-03-23T09:13:46.229Z,95687
2023-03-23T09:14:46.304Z,95686
2023-03-23T09:16:46.262Z,95689
2023-03-23T09:17:46.260Z,95696
2023-03-23T09:18:46.249Z,95689
2023-03-23T09:19:46.244Z,95689
2023-03-23T09:20:46.269Z,95689
2023-03-23T09:21:46.280Z,95690
2023-03-23T09:23:46.262Z,95686
2023-03-23T09:24:46.279Z,95691
2023-03-23T09:25:46.300Z,95689
2023-03-23T09:26:46.269Z,95692
2023-03-23T09:27:46.308Z,95695
2023-03-23T09:28:46.300Z,95696
2023-03-23T09:29:46.282Z,95695
2023-03-23T09:30:53.060Z,95700
2023-03-23T09:31:46.327Z,95696
2023-03-23T09:32:46.307Z,95696
2023-03-23T09:33:47.130Z,95686
2023-03-23T09:34:46.325Z,95692
2023-03-23T09:35:46.352Z,95692
2023-03-23T09:36:46.351Z,95698
2023-03-23T09:37:46.290Z,95698
2023-03-23T09:38:46.307Z,95701
2023-03-23T09:39:46.313Z,95703
2023-03-23T09:40:46.303Z,95699
2023-03-23T09:41:46.349Z,95703
2023-03-23T09:42:46.324Z,95704
2023-03-23T09:43:46.331Z,95703
2023-03-23T09:44:46.316Z,95701
2023-03-23T09:45:46.319Z,95702
2023-03-23T09:46:46.360Z,95703
2023-03-23T09:47:46.316Z,95705
2023-03-23T09:48:46.351Z,95706
2023-03-23T09:51:46.332Z,95711
2023-03-23T09:52:46.353Z,95707
2023-03-23T09:53:46.378Z,95703
2023-03-23T09:54:46.390Z,95703
2023-03-23T09:55:46.348Z,95707
2023-03-23T09:56:46.491Z,95709
2023-03-23T09:57:46.360Z,95707
2023-03-23T09:58:46.978Z,95709
2023-03-23T09:59:46.382Z,95710
2023-03-23T10:00:46.449Z,95713
2023-03-23T10:01:46.361Z,95714
2023-03-23T10:03:46.383Z,95716
2023-03-23T10:04:46.364Z,95721
2023-03-23T10:05:46.364Z,95722
2023-03-23T10:07:46.449Z,95736
2023-03-23T10:08:56.875Z,95735
2023-03-23T10:09:46.395Z,95739
2023-03-23T10:11:47.458Z,95742
2023-03-23T10:12:46.420Z,95739
2023-03-23T10:14:46.437Z,95738
2023-03-23T10:16:46.385Z,95740
2023-03-23T10:17:46.485Z,95736
2023-03-23T10:18:46.421Z,95738
2023-03-23T10:19:46.415Z,95734
2023-03-23T10:20:46.464Z,95731
2023-03-23T10:21:46.388Z,95731
2023-03-23T10:22:46.444Z,95740
2023-03-23T10:23:46.589Z,95739
2023-03-23T10:24:46.425Z,95739
2023-03-23T10:26:46.452Z,95740
2023-03-23T10:27:46.413Z,95740
2023-03-23T10:28:46.464Z,95737
2023-03-23T10:30:46.459Z,95732
2023-03-23T10:31:46.474Z,95733
2023-03-23T10:32:46.423Z,95733
2023-03-23T10:33:46.478Z,95732
2023-03-23T10:34:46.471Z,95731
2023-03-23T10:35:46.542Z,95728
2023-03-23T10:36:46.496Z,95726
2023-03-23T10:37:46.454Z,95725
2023-03-23T10:38:46.503Z,95725
2023-03-23T10:40:46.483Z,95718
2023-03-23T10:41:46.456Z,95720
2023-03-23T10:43:46.481Z,95723
2023-03-23T10:44:46.480Z,95723
2023-03-23T10:46:00.003Z,95718
2023-03-23T10:47:46.504Z,95717
2023-03-23T10:49:46.522Z,95711
2023-03-23T10:51:46.536Z,95713
2023-03-23T10:52:46.499Z,95712
2023-03-23T10:54:46.585Z,95718
2023-03-23T10:55:46.531Z,95720
2023-03-23T10:56:58.809Z,95722
2023-03-23T10:57:46.536Z,95722
2023-03-23T10:58:46.532Z,95722
2023-03-23T10:59:46.576Z,95721
2023-03-23T11:00:46.549Z,95717
2023-03-23T11:01:46.535Z,95714
2023-03-23T11:04:46.560Z,95712
2023-03-23T11:06:46.535Z,95713
2023-03-23T11:07:46.558Z,95711
2023-03-23T11:08:46.562Z,95710
2023-03-23T11:09:46.536Z,95711
2023-03-23T11:10:46.571Z,95714
2023-03-23T11:11:46.577Z,95714
2023-03-23T11:12:46.545Z,95711
2023-03-23T11:13:47.513Z,95713
2023-03-23T11:14:46.578Z,95714
2023-03-23T11:15:46.538Z,95715
2023-03-23T11:16:46.594Z,95719
2023-03-23T11:17:46.589Z,95716
2023-03-23T11:18:46.606Z,95721
2023-03-23T11:19:47.028Z,95716
2023-03-23T11:20:46.557Z,95719
2023-03-23T11:21:46.617Z,95714
2023-03-23T11:22:46.567Z,95715
2023-03-23T11:23:46.576Z,95720
2023-03-23T11:24:46.601Z,95714
2023-03-23T11:25:46.595Z,95711
2023-03-23T11:26:56.856Z,95712
2023-03-23T11:27:46.626Z,95706
2023-03-23T11:28:46.617Z,95711
2023-03-23T11:29:51.995Z,95717
2023-03-23T11:30:46.602Z,95716
2023-03-23T11:31:46.614Z,95716
2023-03-23T11:32:46.602Z,95716
2023-03-23T11:33:50.039Z,95703
2023-03-23T11:34:46.583Z,95704
2023-03-23T11:35:46.609Z,95699
2023-03-23T11:36:46.596Z,95700
2023-03-23T11:37:46.671Z,95699
2023-03-23T11:38:46.626Z,95703
2023-03-23T11:39:46.615Z,95703
2023-03-23T11:41:46.620Z,95715
2023-03-23T11:42:46.646Z,95717
2023-03-23T11:43:46.654Z,95719
2023-03-23T11:44:46.668Z,95719
2023-03-23T11:45:46.608Z,95719
2023-03-23T11:46:46.628Z,95724
2023-03-23T11:47:46.649Z,95724
2023-03-23T11:48:46.632Z,95722
2023-03-23T11:49:46.660Z,95712
2023-03-23T11:50:46.648Z,95705
2023-03-23T11:51:46.659Z,95705
2023-03-23T11:52:46.697Z,95711
2023-03-23T11:53:46.645Z,95709
2023-03-23T11:54:46.673Z,95702
2023-03-23T11:55:46.733Z,95698
2023-03-23T11:56:46.670Z,95696
2023-03-23T11:57:46.686Z,95693
2023-03-23T11:58:46.646Z,95691
2023-03-23T11:59:46.656Z,95693
2023-03-23T12:00:46.677Z,95692
2023-03-23T12:01:46.673Z,95693
2023-03-23T12:02:46.656Z,95688
2023-03-23T12:03:46.686Z,95688
2023-03-23T12:04:46.670Z,95685
2023-03-23T12:05:46.701Z,95683
2023-03-23T12:06:46.714Z,95682
2023-03-23T12:07:46.738Z,95682
2023-03-23T12:08:46.708Z,95681
2023-03-23T12:09:46.679Z,95681
2023-03-23T12:13:49.886Z,95687
2023-03-23T12:14:46.720Z,95686
2023-03-23T12:15:46.727Z,95687
2023-03-23T12:16:46.722Z,95682
2023-03-23T12:17:46.728Z,95683
2023-03-23T12:18:46.728Z,95681
2023-03-23T12:19:46.708Z,95678
2023-03-23T12:20:46.785Z,95677
2023-03-23T12:21:46.722Z,95676
2023-03-23T12:22:46.741Z,95676
2023-03-23T12:23:46.740Z,95676
2023-03-23T12:24:46.781Z,95675
2023-03-23T12:25:46.750Z,95676
2023-03-23T12:26:46.748Z,95674
2023-03-23T12:27:46.772Z,95676
2023-03-23T12:28:46.863Z,95672
2023-03-23T12:29:46.793Z,95670
2023-03-23T12:30:46.764Z,95672
2023-03-23T12:31:46.781Z,95670
2023-03-23T12:32:46.781Z,95665
2023-03-23T12:33:46.765Z,95665
2023-03-23T12:34:46.753Z,95664
2023-03-23T12:35:46.820Z,95663
2023-03-23T12:36:46.771Z,95667
2023-03-23T12:39:46.776Z,95663
2023-03-23T12:40:46.790Z,95663
2023-03-23T12:41:46.796Z,95661
2023-03-23T12:42:46.790Z,95658
2023-03-23T12:43:46.812Z,95660
2023-03-23T12:44:46.773Z,95660
2023-03-23T12:45:46.805Z,95655
2023-03-23T12:46:47.826Z,95652
2023-03-23T12:47:46.798Z,95653
2023-03-23T12:48:46.826Z,95656
2023-03-23T12:49:46.800Z,95655
2023-03-23T12:50:46.796Z,95651
2023-03-23T12:51:46.810Z,95656
2023-03-23T12:52:46.803Z,95653
2023-03-23T12:53:46.832Z,95649
2023-03-23T12:55:46.798Z,95658
2023-03-23T12:56:46.832Z,95659
2023-03-23T12:57:47.572Z,95658
2023-03-23T12:58:47.526Z,95655
2023-03-23T12:59:46.813Z,95651
2023-03-23T13:00:46.826Z,95652
2023-03-23T13:01:46.814Z,95648
2023-03-23T13:02:46.830Z,95648
2023-03-23T13:03:46.893Z,95645
2023-03-23T13:04:47.610Z,95648
2023-03-23T13:05:46.828Z,95640
2023-03-23T13:06:46.828Z,95639
2023-03-23T13:07:46.834Z,95645
2023-03-23T13:08:46.843Z,95643
2023-03-23T13:09:46.860Z,95640
2023-03-23T13:10:46.875Z,95641
2023-03-23T13:11:46.855Z,95643
2023-03-23T13:12:46.848Z,95645
2023-03-23T13:14:46.861Z,95643
2023-03-23T13:15:46.849Z,95646
2023-03-23T13:16:46.895Z,95646
2023-03-23T13:17:46.857Z,95649
2023-03-23T13:18:46.896Z,95643
2023-03-23T13:19:46.895Z,95646
2023-03-23T13:20:46.869Z,95642
2023-03-23T13:21:52.700Z,95646
2023-03-23T13:22:47.565Z,95652
2023-03-23T13:23:46.880Z,95644
2023-03-23T13:24:46.877Z,95645
2023-03-23T13:25:46.923Z,95641
2023-03-23T13:26:46.902Z,95637
2023-03-23T13:27:46.912Z,95641
2023-03-23T13:28:47.497Z,95641
2023-03-23T13:29:46.893Z,95641
2023-03-23T13:30:46.917Z,95646
2023-03-23T13:31:46.987Z,95648
2023-03-23T13:32:56.790Z,95652
2023-03-23T13:33:46.901Z,95655
2023-03-23T13:34:47.451Z,95654
2023-03-23T13:35:46.954Z,95654
2023-03-23T13:36:46.960Z,95660
2023-03-23T13:38:46.968Z,95654
2023-03-23T13:39:46.916Z,95655
2023-03-23T13:40:46.961Z,95654
2023-03-23T13:41:46.989Z,95654
2023-03-23T13:42:46.928Z,95654
2023-03-23T13:43:46.938Z,95649
2023-03-23T13:44:46.968Z,95652
2023-03-23T13:45:46.952Z,95652
2023-03-23T13:46:46.963Z,95650
2023-03-23T13:47:46.945Z,95654
2023-03-23T13:48:46.972Z,95651
2023-03-23T13:49:46.976Z,95647
2023-03-23T13:50:46.947Z,95651
2023-03-23T13:51:46.984Z,95648
2023-03-23T13:52:47.106Z,95648
2023-03-23T13:53:46.977Z,95644
2023-03-23T13:54:47.198Z,95645
2023-03-23T13:55:46.953Z,95639
2023-03-23T13:56:46.965Z,95645
2023-03-23T13:57:46.973Z,95643
2023-03-23T13:58:47.456Z,95646
2023-03-23T13:59:47.018Z,95637
2023-03-23T14:00:47.020Z,95641
2023-03-23T14:01:46.996Z,95642
2023-03-23T14:02:47.019Z,95644
2023-03-23T14:03:47.009Z,95643
2023-03-23T14:04:47.012Z,95643
2023-03-23T14:05:46.998Z,95643
2023-03-23T14:06:46.988Z,95642
2023-03-23T14:07:47.022Z,95645
2023-03-23T14:08:47.020Z,95640
2023-03-23T14:09:46.983Z,95642
2023-03-23T14:10:47.040Z,95637
2023-03-23T14:11:47.003Z,95641
2023-03-23T14:12:47.009Z,95639
2023-03-23T14:13:47.031Z,95639
2023-03-23T14:14:47.012Z,95640
2023-03-23T14:16:47.049Z,95639
2023-03-23T14:17:47.036Z,95638
2023-03-23T14:19:47.068Z,95636
2023-03-23T14:20:47.045Z,95634
2023-03-23T14:22:47.098Z,95632
2023-03-23T14:23:47.038Z,95635
2023-03-23T14:25:47.062Z,95635